Manhattan Beach, Oregon
Current Conditions -  °F | °C
As of 3:15 PM on Friday 31 Oct 2014 (Local Time) from KTMK Reporting Station
Overcast Overcast  
Wind Chill: 55°   Ceiling: 3800
Heat Index: 55°   Visibility: 10mi
Dew Point: 50°   Wind: 5mph
Humidity: 82%   Direction: 20°NNE
Pressure: 29.85"   Gusts: NA
Location:  45.6132°N, 123.654°W
Report Text: KTMK 312215Z AUTO 02004KT 10SM SCT028 BKN038 OVC075 13/10 A2985 RMK AO2
Loading
Personal Weather Stations






























Interactive Weather Map
Tropical Storm Tracking
New forecast layout! Learn more

10-Day Weather Forecast

Advertisements
Track Severe Weather on mobile